sensor_id;sensor_type;location;lat;lon;timestamp;pressure;altitude;pressure_sealevel;temperature;humidity
61488;BME280;47351;53.326;-6.298;2023-11-21T00:02:15;102161.54;;;7.14;85.43
61488;BME280;47351;53.326;-6.298;2023-11-21T00:05:07;102160.20;;;7.13;85.54
61488;BME280;47351;53.326;-6.298;2023-11-21T00:07:59;102162.70;;;7.13;85.67
61488;BME280;47351;53.326;-6.298;2023-11-21T00:10:50;102158.59;;;7.13;85.71
61488;BME280;47351;53.326;-6.298;2023-11-21T00:13:41;102155.80;;;7.13;85.77
61488;BME280;47351;53.326;-6.298;2023-11-21T00:16:32;102157.16;;;7.11;85.88
61488;BME280;47351;53.326;-6.298;2023-11-21T00:19:23;102162.27;;;7.09;85.95
61488;BME280;47351;53.326;-6.298;2023-11-21T00:22:14;102161.53;;;7.07;86.01
61488;BME280;47351;53.326;-6.298;2023-11-21T00:25:06;102157.09;;;7.04;86.20
61488;BME280;47351;53.326;-6.298;2023-11-21T00:27:58;102155.56;;;7.03;86.25
61488;BME280;47351;53.326;-6.298;2023-11-21T00:30:50;102158.48;;;7.02;86.29
61488;BME280;47351;53.326;-6.298;2023-11-21T00:33:41;102157.34;;;7.00;86.37
61488;BME280;47351;53.326;-6.298;2023-11-21T00:36:32;102163.80;;;6.99;86.55
61488;BME280;47351;53.326;-6.298;2023-11-21T00:39:22;102179.72;;;6.97;86.59
61488;BME280;47351;53.326;-6.298;2023-11-21T00:42:14;102184.81;;;6.95;86.68
61488;BME280;47351;53.326;-6.298;2023-11-21T00:45:07;102196.46;;;6.93;86.74
61488;BME280;47351;53.326;-6.298;2023-11-21T00:47:58;102204.81;;;6.90;86.83
61488;BME280;47351;53.326;-6.298;2023-11-21T00:50:48;102209.86;;;6.86;86.84
61488;BME280;47351;53.326;-6.298;2023-11-21T00:53:39;102217.16;;;6.83;86.87
61488;BME280;47351;53.326;-6.298;2023-11-21T00:56:30;102215.20;;;6.80;86.96
61488;BME280;47351;53.326;-6.298;2023-11-21T00:59:21;102220.12;;;6.79;87.12
61488;BME280;47351;53.326;-6.298;2023-11-21T01:02:12;102222.84;;;6.78;87.22
61488;BME280;47351;53.326;-6.298;2023-11-21T01:05:03;102224.23;;;6.78;87.32
61488;BME280;47351;53.326;-6.298;2023-11-21T01:07:54;102229.93;;;6.78;87.47
61488;BME280;47351;53.326;-6.298;2023-11-21T01:10:45;102234.18;;;6.78;87.78
61488;BME280;47351;53.326;-6.298;2023-11-21T01:13:35;102232.73;;;6.76;87.65
61488;BME280;47351;53.326;-6.298;2023-11-21T01:16:26;102235.20;;;6.73;87.71
61488;BME280;47351;53.326;-6.298;2023-11-21T01:19:17;102245.55;;;6.69;87.54
61488;BME280;47351;53.326;-6.298;2023-11-21T01:22:08;102254.69;;;6.65;87.65
61488;BME280;47351;53.326;-6.298;2023-11-21T01:25:01;102259.92;;;6.60;87.58
61488;BME280;47351;53.326;-6.298;2023-11-21T01:27:53;102261.64;;;6.55;87.61
61488;BME280;47351;53.326;-6.298;2023-11-21T01:30:43;102267.98;;;6.50;87.74
61488;BME280;47351;53.326;-6.298;2023-11-21T01:33:35;102272.34;;;6.48;87.80
61488;BME280;47351;53.326;-6.298;2023-11-21T01:36:30;102268.29;;;6.48;87.85
61488;BME280;47351;53.326;-6.298;2023-11-21T01:39:22;102265.44;;;6.48;87.84
61488;BME280;47351;53.326;-6.298;2023-11-21T01:42:13;102267.00;;;6.49;87.92
61488;BME280;47351;53.326;-6.298;2023-11-21T01:45:04;102271.21;;;6.50;87.93
61488;BME280;47351;53.326;-6.298;2023-11-21T01:47:55;102270.52;;;6.49;87.85
61488;BME280;47351;53.326;-6.298;2023-11-21T01:50:47;102268.66;;;6.48;87.83
61488;BME280;47351;53.326;-6.298;2023-11-21T01:53:38;102274.80;;;6.46;87.80
61488;BME280;47351;53.326;-6.298;2023-11-21T01:56:29;102282.77;;;6.46;88.01
61488;BME280;47351;53.326;-6.298;2023-11-21T01:59:21;102287.93;;;6.46;88.02
61488;BME280;47351;53.326;-6.298;2023-11-21T02:02:12;102289.02;;;6.45;88.05
61488;BME280;47351;53.326;-6.298;2023-11-21T02:05:02;102298.30;;;6.45;88.17
61488;BME280;47351;53.326;-6.298;2023-11-21T02:07:53;102298.59;;;6.43;88.13
61488;BME280;47351;53.326;-6.298;2023-11-21T02:10:44;102303.52;;;6.41;88.18
61488;BME280;47351;53.326;-6.298;2023-11-21T02:13:35;102306.95;;;6.37;88.28
61488;BME280;47351;53.326;-6.298;2023-11-21T02:16:26;102307.02;;;6.33;88.43
61488;BME280;47351;53.326;-6.298;2023-11-21T02:19:19;102307.24;;;6.29;88.46
61488;BME280;47351;53.326;-6.298;2023-11-21T02:22:12;102310.53;;;6.27;88.49
61488;BME280;47351;53.326;-6.298;2023-11-21T02:25:06;102309.11;;;6.27;88.52
61488;BME280;47351;53.326;-6.298;2023-11-21T02:27:57;102312.59;;;6.28;88.67
61488;BME280;47351;53.326;-6.298;2023-11-21T02:30:48;102318.23;;;6.29;88.79
61488;BME280;47351;53.326;-6.298;2023-11-21T02:33:44;102324.42;;;6.29;88.99
61488;BME280;47351;53.326;-6.298;2023-11-21T02:36:35;102341.26;;;6.29;89.04
61488;BME280;47351;53.326;-6.298;2023-11-21T02:39:27;102357.31;;;6.28;89.07
61488;BME280;47351;53.326;-6.298;2023-11-21T02:42:17;102363.44;;;6.26;89.08
61488;BME280;47351;53.326;-6.298;2023-11-21T02:45:09;102372.31;;;6.23;89.03
61488;BME280;47351;53.326;-6.298;2023-11-21T02:48:01;102374.70;;;6.18;88.96
61488;BME280;47351;53.326;-6.298;2023-11-21T02:50:53;102373.61;;;6.13;89.00
61488;BME280;47351;53.326;-6.298;2023-11-21T02:53:43;102375.01;;;6.07;89.08
61488;BME280;47351;53.326;-6.298;2023-11-21T02:56:35;102384.93;;;6.00;89.05
61488;BME280;47351;53.326;-6.298;2023-11-21T02:59:26;102391.48;;;5.94;89.28
61488;BME280;47351;53.326;-6.298;2023-11-21T03:02:17;102399.98;;;5.88;89.39
61488;BME280;47351;53.326;-6.298;2023-11-21T03:05:08;102398.79;;;5.80;89.39
61488;BME280;47351;53.326;-6.298;2023-11-21T03:07:59;102402.55;;;5.73;89.57
61488;BME280;47351;53.326;-6.298;2023-11-21T03:10:49;102405.17;;;5.68;89.75
61488;BME280;47351;53.326;-6.298;2023-11-21T03:13:40;102400.29;;;5.63;89.98
61488;BME280;47351;53.326;-6.298;2023-11-21T03:16:31;102404.09;;;5.58;89.97
61488;BME280;47351;53.326;-6.298;2023-11-21T03:19:22;102411.48;;;5.56;90.17
61488;BME280;47351;53.326;-6.298;2023-11-21T03:22:12;102410.82;;;5.55;90.30
61488;BME280;47351;53.326;-6.298;2023-11-21T03:25:04;102414.38;;;5.55;90.37
61488;BME280;47351;53.326;-6.298;2023-11-21T03:27:55;102414.04;;;5.54;90.43
61488;BME280;47351;53.326;-6.298;2023-11-21T03:30:45;102422.52;;;5.55;90.53
61488;BME280;47351;53.326;-6.298;2023-11-21T03:33:36;102428.06;;;5.57;90.74
61488;BME280;47351;53.326;-6.298;2023-11-21T03:36:27;102435.34;;;5.61;90.81
61488;BME280;47351;53.326;-6.298;2023-11-21T03:39:17;102431.52;;;5.62;90.83
61488;BME280;47351;53.326;-6.298;2023-11-21T03:42:08;102430.90;;;5.64;90.78
61488;BME280;47351;53.326;-6.298;2023-11-21T03:44:58;102427.38;;;5.63;90.76
61488;BME280;47351;53.326;-6.298;2023-11-21T03:47:49;102424.80;;;5.62;90.86
61488;BME280;47351;53.326;-6.298;2023-11-21T03:50:40;102416.02;;;5.60;90.83
61488;BME280;47351;53.326;-6.298;2023-11-21T03:53:30;102416.73;;;5.57;90.71
61488;BME280;47351;53.326;-6.298;2023-11-21T03:56:21;102424.50;;;5.54;90.85
61488;BME280;47351;53.326;-6.298;2023-11-21T03:59:12;102437.92;;;5.52;90.95
61488;BME280;47351;53.326;-6.298;2023-11-21T04:02:02;102451.60;;;5.48;90.93
61488;BME280;47351;53.326;-6.298;2023-11-21T04:04:53;102459.36;;;5.42;90.84
61488;BME280;47351;53.326;-6.298;2023-11-21T04:07:44;102464.42;;;5.36;90.89
61488;BME280;47351;53.326;-6.298;2023-11-21T04:10:34;102462.84;;;5.33;91.10
61488;BME280;47351;53.326;-6.298;2023-11-21T04:13:25;102463.59;;;5.32;91.28
61488;BME280;47351;53.326;-6.298;2023-11-21T04:16:16;102464.89;;;5.31;91.36
61488;BME280;47351;53.326;-6.298;2023-11-21T04:19:07;102459.25;;;5.31;91.42
61488;BME280;47351;53.326;-6.298;2023-11-21T04:21:59;102464.81;;;5.32;91.58
61488;BME280;47351;53.326;-6.298;2023-11-21T04:24:49;102463.34;;;5.33;91.75
61488;BME280;47351;53.326;-6.298;2023-11-21T04:27:40;102461.52;;;5.34;91.78
61488;BME280;47351;53.326;-6.298;2023-11-21T04:30:33;102462.59;;;5.38;91.88
61488;BME280;47351;53.326;-6.298;2023-11-21T04:33:24;102468.90;;;5.39;92.01
61488;BME280;47351;53.326;-6.298;2023-11-21T04:36:14;102479.63;;;5.41;92.04
61488;BME280;47351;53.326;-6.298;2023-11-21T04:39:05;102481.02;;;5.41;92.04
61488;BME280;47351;53.326;-6.298;2023-11-21T04:41:56;102482.20;;;5.41;92.15
61488;BME280;47351;53.326;-6.298;2023-11-21T04:44:47;102486.63;;;5.42;92.11
61488;BME280;47351;53.326;-6.298;2023-11-21T04:47:38;102493.42;;;5.41;92.18
61488;BME280;47351;53.326;-6.298;2023-11-21T04:50:28;102498.05;;;5.40;92.11
61488;BME280;47351;53.326;-6.298;2023-11-21T04:53:19;102502.52;;;5.39;92.13
61488;BME280;47351;53.326;-6.298;2023-11-21T04:56:09;102502.35;;;5.39;92.05
61488;BME280;47351;53.326;-6.298;2023-11-21T04:59:00;102504.46;;;5.39;92.05
61488;BME280;47351;53.326;-6.298;2023-11-21T05:01:50;102506.70;;;5.41;92.13
61488;BME280;47351;53.326;-6.298;2023-11-21T05:04:42;102509.05;;;5.43;92.21
61488;BME280;47351;53.326;-6.298;2023-11-21T05:07:33;102511.04;;;5.45;92.38
61488;BME280;47351;53.326;-6.298;2023-11-21T05:10:24;102513.86;;;5.49;92.40
61488;BME280;47351;53.326;-6.298;2023-11-21T05:13:15;102512.77;;;5.53;92.46
61488;BME280;47351;53.326;-6.298;2023-11-21T05:16:06;102510.30;;;5.56;92.41
61488;BME280;47351;53.326;-6.298;2023-11-21T05:18:57;102515.46;;;5.59;92.29
61488;BME280;47351;53.326;-6.298;2023-11-21T05:21:50;102523.30;;;5.62;92.30
61488;BME280;47351;53.326;-6.298;2023-11-21T05:24:40;102535.83;;;5.63;92.29
61488;BME280;47351;53.326;-6.298;2023-11-21T05:27:31;102541.14;;;5.63;92.14
61488;BME280;47351;53.326;-6.298;2023-11-21T05:30:21;102544.77;;;5.61;92.05
61488;BME280;47351;53.326;-6.298;2023-11-21T05:33:13;102545.60;;;5.58;92.06
61488;BME280;47351;53.326;-6.298;2023-11-21T05:36:04;102546.83;;;5.55;92.07
61488;BME280;47351;53.326;-6.298;2023-11-21T05:38:57;102551.59;;;5.52;92.06
61488;BME280;47351;53.326;-6.298;2023-11-21T05:41:47;102554.64;;;5.52;92.10
61488;BME280;47351;53.326;-6.298;2023-11-21T05:44:40;102564.02;;;5.52;92.13
61488;BME280;47351;53.326;-6.298;2023-11-21T05:47:31;102570.54;;;5.52;92.21
61488;BME280;47351;53.326;-6.298;2023-11-21T05:50:22;102578.98;;;5.54;92.27
61488;BME280;47351;53.326;-6.298;2023-11-21T05:53:12;102586.13;;;5.56;92.34
61488;BME280;47351;53.326;-6.298;2023-11-21T05:56:05;102586.54;;;5.58;92.38
61488;BME280;47351;53.326;-6.298;2023-11-21T05:58:56;102588.19;;;5.61;92.38
61488;BME280;47351;53.326;-6.298;2023-11-21T06:01:47;102585.63;;;5.63;92.24
61488;BME280;47351;53.326;-6.298;2023-11-21T06:04:38;102583.02;;;5.62;92.15
61488;BME280;47351;53.326;-6.298;2023-11-21T06:07:29;102583.05;;;5.61;92.11
61488;BME280;47351;53.326;-6.298;2023-11-21T06:10:22;102590.98;;;5.58;92.13
61488;BME280;47351;53.326;-6.298;2023-11-21T06:13:13;102589.39;;;5.54;92.09
61488;BME280;47351;53.326;-6.298;2023-11-21T06:16:04;102588.08;;;5.49;92.03
61488;BME280;47351;53.326;-6.298;2023-11-21T06:18:55;102582.16;;;5.43;92.01
61488;BME280;47351;53.326;-6.298;2023-11-21T06:21:46;102584.34;;;5.39;92.09
61488;BME280;47351;53.326;-6.298;2023-11-21T06:24:37;102589.14;;;5.35;92.17
61488;BME280;47351;53.326;-6.298;2023-11-21T06:27:27;102592.65;;;5.32;92.32
61488;BME280;47351;53.326;-6.298;2023-11-21T06:30:18;102596.27;;;5.31;92.46
61488;BME280;47351;53.326;-6.298;2023-11-21T06:33:09;102604.11;;;5.30;92.57
61488;BME280;47351;53.326;-6.298;2023-11-21T06:36:01;102614.21;;;5.30;92.68
61488;BME280;47351;53.326;-6.298;2023-11-21T06:38:52;102611.04;;;5.29;92.73
61488;BME280;47351;53.326;-6.298;2023-11-21T06:41:43;102607.89;;;5.28;92.76
61488;BME280;47351;53.326;-6.298;2023-11-21T06:44:33;102606.20;;;5.27;92.75
61488;BME280;47351;53.326;-6.298;2023-11-21T06:47:25;102605.06;;;5.25;92.81
61488;BME280;47351;53.326;-6.298;2023-11-21T06:50:17;102602.85;;;5.23;92.84
61488;BME280;47351;53.326;-6.298;2023-11-21T06:53:07;102610.66;;;5.23;92.92
61488;BME280;47351;53.326;-6.298;2023-11-21T06:55:59;102617.13;;;5.21;92.94
61488;BME280;47351;53.326;-6.298;2023-11-21T06:58:49;102622.38;;;5.19;92.99
61488;BME280;47351;53.326;-6.298;2023-11-21T07:01:43;102629.92;;;5.16;92.98
61488;BME280;47351;53.326;-6.298;2023-11-21T07:04:33;102629.70;;;5.13;93.06
61488;BME280;47351;53.326;-6.298;2023-11-21T07:07:24;102633.39;;;5.10;93.07
61488;BME280;47351;53.326;-6.298;2023-11-21T07:10:15;102637.61;;;5.07;93.12
61488;BME280;47351;53.326;-6.298;2023-11-21T07:13:05;102642.52;;;5.05;93.14
61488;BME280;47351;53.326;-6.298;2023-11-21T07:15:56;102649.48;;;5.03;93.26
61488;BME280;47351;53.326;-6.298;2023-11-21T07:18:46;102652.30;;;5.03;93.58
61488;BME280;47351;53.326;-6.298;2023-11-21T07:21:38;102660.09;;;5.04;93.64
61488;BME280;47351;53.326;-6.298;2023-11-21T07:24:29;102663.42;;;5.04;93.79
61488;BME280;47351;53.326;-6.298;2023-11-21T07:27:21;102668.33;;;5.05;93.90
61488;BME280;47351;53.326;-6.298;2023-11-21T07:30:12;102669.86;;;5.06;94.03
61488;BME280;47351;53.326;-6.298;2023-11-21T07:33:02;102676.95;;;5.06;94.05
61488;BME280;47351;53.326;-6.298;2023-11-21T07:35:53;102688.20;;;5.04;93.89
61488;BME280;47351;53.326;-6.298;2023-11-21T07:38:44;102694.74;;;5.01;93.73
61488;BME280;47351;53.326;-6.298;2023-11-21T07:41:35;102690.05;;;4.96;93.71
61488;BME280;47351;53.326;-6.298;2023-11-21T07:44:27;102693.29;;;4.90;93.77
61488;BME280;47351;53.326;-6.298;2023-11-21T07:47:18;102692.59;;;4.86;93.85
61488;BME280;47351;53.326;-6.298;2023-11-21T07:50:10;102694.39;;;4.82;93.93
61488;BME280;47351;53.326;-6.298;2023-11-21T07:53:00;102708.48;;;4.80;93.98
61488;BME280;47351;53.326;-6.298;2023-11-21T07:55:51;102713.11;;;4.79;94.01
61488;BME280;47351;53.326;-6.298;2023-11-21T07:58:42;102714.34;;;4.79;94.09
61488;BME280;47351;53.326;-6.298;2023-11-21T08:01:33;102711.52;;;4.79;94.14
61488;BME280;47351;53.326;-6.298;2023-11-21T08:04:24;102712.73;;;4.80;94.28
61488;BME280;47351;53.326;-6.298;2023-11-21T08:07:14;102720.06;;;4.82;94.39
61488;BME280;47351;53.326;-6.298;2023-11-21T08:10:06;102727.52;;;4.85;94.47
61488;BME280;47351;53.326;-6.298;2023-11-21T08:12:59;102726.06;;;4.89;94.65
61488;BME280;47351;53.326;-6.298;2023-11-21T08:15:49;102723.59;;;4.93;94.62
61488;BME280;47351;53.326;-6.298;2023-11-21T08:18:40;102723.33;;;4.95;94.52
61488;BME280;47351;53.326;-6.298;2023-11-21T08:21:31;102726.11;;;4.96;94.42
61488;BME280;47351;53.326;-6.298;2023-11-21T08:24:22;102725.93;;;4.96;94.31
61488;BME280;47351;53.326;-6.298;2023-11-21T08:27:12;102728.55;;;4.97;94.18
61488;BME280;47351;53.326;-6.298;2023-11-21T08:30:05;102744.05;;;4.99;94.25
61488;BME280;47351;53.326;-6.298;2023-11-21T08:32:56;102752.42;;;5.01;94.32
61488;BME280;47351;53.326;-6.298;2023-11-21T08:35:47;102751.75;;;5.04;94.37
61488;BME280;47351;53.326;-6.298;2023-11-21T08:38:38;102756.54;;;5.08;94.28
61488;BME280;47351;53.326;-6.298;2023-11-21T08:41:30;102757.20;;;5.12;94.40
61488;BME280;47351;53.326;-6.298;2023-11-21T08:44:21;102764.34;;;5.15;94.17
61488;BME280;47351;53.326;-6.298;2023-11-21T08:47:12;102768.83;;;5.17;93.97
61488;BME280;47351;53.326;-6.298;2023-11-21T08:50:03;102770.55;;;5.22;93.97
61488;BME280;47351;53.326;-6.298;2023-11-21T08:52:55;102773.99;;;5.27;94.07
61488;BME280;47351;53.326;-6.298;2023-11-21T08:55:46;102781.14;;;5.34;94.07
61488;BME280;47351;53.326;-6.298;2023-11-21T08:58:37;102786.59;;;5.42;94.08
61488;BME280;47351;53.326;-6.298;2023-11-21T09:01:28;102789.10;;;5.52;94.13
61488;BME280;47351;53.326;-6.298;2023-11-21T09:04:20;102787.16;;;5.63;94.09
61488;BME280;47351;53.326;-6.298;2023-11-21T09:07:11;102786.00;;;5.72;93.99
61488;BME280;47351;53.326;-6.298;2023-11-21T09:10:01;102786.62;;;5.78;93.43
61488;BME280;47351;53.326;-6.298;2023-11-21T09:12:52;102791.12;;;5.84;93.13
61488;BME280;47351;53.326;-6.298;2023-11-21T09:15:43;102801.72;;;5.91;93.05
61488;BME280;47351;53.326;-6.298;2023-11-21T09:18:35;102810.98;;;5.98;92.89
61488;BME280;47351;53.326;-6.298;2023-11-21T09:21:25;102810.33;;;6.04;92.74
61488;BME280;47351;53.326;-6.298;2023-11-21T09:24:16;102809.58;;;6.12;92.66
61488;BME280;47351;53.326;-6.298;2023-11-21T09:27:07;102803.74;;;6.22;92.55
61488;BME280;47351;53.326;-6.298;2023-11-21T09:29:58;102797.45;;;6.34;92.42
61488;BME280;47351;53.326;-6.298;2023-11-21T09:32:49;102795.23;;;6.46;92.29
61488;BME280;47351;53.326;-6.298;2023-11-21T09:35:39;102802.84;;;6.57;92.21
61488;BME280;47351;53.326;-6.298;2023-11-21T09:38:30;102806.68;;;6.68;92.14
61488;BME280;47351;53.326;-6.298;2023-11-21T09:41:21;102808.13;;;6.81;92.16
61488;BME280;47351;53.326;-6.298;2023-11-21T09:44:17;102809.31;;;6.88;91.83
61488;BME280;47351;53.326;-6.298;2023-11-21T09:47:08;102809.22;;;6.90;91.61
61488;BME280;47351;53.326;-6.298;2023-11-21T09:50:00;102802.12;;;6.90;91.38
61488;BME280;47351;53.326;-6.298;2023-11-21T09:52:55;102793.48;;;6.85;91.22
61488;BME280;47351;53.326;-6.298;2023-11-21T09:55:50;102787.06;;;6.80;91.02
61488;BME280;47351;53.326;-6.298;2023-11-21T09:58:41;102786.95;;;6.74;91.05
61488;BME280;47351;53.326;-6.298;2023-11-21T10:01:32;102792.09;;;6.75;91.25
61488;BME280;47351;53.326;-6.298;2023-11-21T10:04:23;102794.70;;;6.76;91.39
61488;BME280;47351;53.326;-6.298;2023-11-21T10:07:15;102797.38;;;6.79;91.50
61488;BME280;47351;53.326;-6.298;2023-11-21T10:10:08;102798.76;;;6.83;91.53
61488;BME280;47351;53.326;-6.298;2023-11-21T10:13:01;102797.61;;;6.88;91.67
61488;BME280;47351;53.326;-6.298;2023-11-21T10:15:52;102793.99;;;6.92;91.80
61488;BME280;47351;53.326;-6.298;2023-11-21T10:18:48;102794.60;;;6.94;91.71
61488;BME280;47351;53.326;-6.298;2023-11-21T10:21:39;102799.21;;;6.94;91.44
61488;BME280;47351;53.326;-6.298;2023-11-21T10:24:30;102804.38;;;6.94;91.56
61488;BME280;47351;53.326;-6.298;2023-11-21T10:27:36;102812.27;;;6.96;91.54
61488;BME280;47351;53.326;-6.298;2023-11-21T10:30:33;102806.00;;;6.97;91.46
61488;BME280;47351;53.326;-6.298;2023-11-21T10:33:28;102794.75;;;6.99;91.37
61488;BME280;47351;53.326;-6.298;2023-11-21T10:36:26;102787.41;;;7.00;91.30
61488;BME280;47351;53.326;-6.298;2023-11-21T10:39:18;102785.94;;;7.04;91.54
61488;BME280;47351;53.326;-6.298;2023-11-21T10:42:09;102791.67;;;7.09;91.56
61488;BME280;47351;53.326;-6.298;2023-11-21T10:45:00;102794.75;;;7.17;91.60
61488;BME280;47351;53.326;-6.298;2023-11-21T10:47:52;102798.35;;;7.26;91.55
61488;BME280;47351;53.326;-6.298;2023-11-21T10:50:43;102794.02;;;7.37;91.52
61488;BME280;47351;53.326;-6.298;2023-11-21T10:53:34;102791.10;;;7.48;91.50
61488;BME280;47351;53.326;-6.298;2023-11-21T10:56:26;102799.70;;;7.59;91.42
61488;BME280;47351;53.326;-6.298;2023-11-21T10:59:19;102809.30;;;7.71;91.28
61488;BME280;47351;53.326;-6.298;2023-11-21T11:02:15;102820.92;;;7.82;91.03
61488;BME280;47351;53.326;-6.298;2023-11-21T11:05:10;102821.17;;;7.94;90.65
61488;BME280;47351;53.326;-6.298;2023-11-21T11:08:02;102818.32;;;8.03;90.54
61488;BME280;47351;53.326;-6.298;2023-11-21T11:10:55;102820.79;;;8.12;90.16
61488;BME280;47351;53.326;-6.298;2023-11-21T11:13:47;102817.16;;;8.20;89.76
61488;BME280;47351;53.326;-6.298;2023-11-21T11:16:39;102824.02;;;8.27;89.48
61488;BME280;47351;53.326;-6.298;2023-11-21T11:19:32;102832.02;;;8.36;89.34
61488;BME280;47351;53.326;-6.298;2023-11-21T11:22:29;102836.30;;;8.51;89.19
61488;BME280;47351;53.326;-6.298;2023-11-21T11:28:38;102812.52;;;11.91;85.00
61488;BME280;47351;53.326;-6.298;2023-11-21T11:31:35;102801.61;;;14.86;81.31
61488;BME280;47351;53.326;-6.298;2023-11-21T11:34:30;102784.52;;;17.96;76.49
61488;BME280;47351;53.326;-6.298;2023-11-21T11:37:23;102771.30;;;20.64;71.80
61488;BME280;47351;53.326;-6.298;2023-11-21T11:40:13;102762.64;;;22.77;68.13
61488;BME280;47351;53.326;-6.298;2023-11-21T11:43:05;102756.69;;;24.77;62.27
61488;BME280;47351;53.326;-6.298;2023-11-21T11:45:57;102750.54;;;25.96;56.64
61488;BME280;47351;53.326;-6.298;2023-11-21T11:48:49;102740.68;;;26.41;51.60
61488;BME280;47351;53.326;-6.298;2023-11-21T11:54:56;102737.09;;;24.12;48.99
61488;BME280;47351;53.326;-6.298;2023-11-21T11:57:47;102737.20;;;23.06;50.15
61488;BME280;47351;53.326;-6.298;2023-11-21T12:00:40;102737.79;;;21.87;48.95
61488;BME280;47351;53.326;-6.298;2023-11-21T12:03:32;102745.89;;;20.75;49.89
61488;BME280;47351;53.326;-6.298;2023-11-21T12:06:31;102752.55;;;20.17;51.36
61488;BME280;47351;53.326;-6.298;2023-11-21T12:09:22;102759.34;;;19.53;51.76
61488;BME280;47351;53.326;-6.298;2023-11-21T12:12:15;102759.20;;;19.01;52.56
61488;BME280;47351;53.326;-6.298;2023-11-21T12:15:09;102753.05;;;18.65;53.26
61488;BME280;47351;53.326;-6.298;2023-11-21T12:18:00;102754.83;;;18.11;53.14
61488;BME280;47351;53.326;-6.298;2023-11-21T12:20:51;102763.09;;;17.65;53.51
61488;BME280;47351;53.326;-6.298;2023-11-21T12:23:42;102766.05;;;17.31;54.43
61488;BME280;47351;53.326;-6.298;2023-11-21T12:26:32;102762.70;;;17.02;55.17
61488;BME280;47351;53.326;-6.298;2023-11-21T12:29:23;102766.98;;;17.12;55.46
61488;BME280;47351;53.326;-6.298;2023-11-21T12:32:14;102760.66;;;17.48;54.08
61488;BME280;47351;53.326;-6.298;2023-11-21T12:35:07;102753.89;;;17.85;53.21
61488;BME280;47351;53.326;-6.298;2023-11-21T12:37:59;102751.45;;;18.39;52.69
61488;BME280;47351;53.326;-6.298;2023-11-21T12:40:51;102760.30;;;18.90;51.87
61488;BME280;47351;53.326;-6.298;2023-11-21T12:43:44;102765.67;;;19.15;51.21
61488;BME280;47351;53.326;-6.298;2023-11-21T12:46:37;102773.00;;;18.84;51.09
61488;BME280;47351;53.326;-6.298;2023-11-21T12:49:30;102769.70;;;18.39;52.22
61488;BME280;47351;53.326;-6.298;2023-11-21T12:52:23;102772.86;;;17.82;52.54
61488;BME280;47351;53.326;-6.298;2023-11-21T12:55:17;102779.59;;;17.20;52.73
61488;BME280;47351;53.326;-6.298;2023-11-21T12:58:10;102785.10;;;16.62;53.90
61488;BME280;47351;53.326;-6.298;2023-11-21T13:01:02;102792.02;;;16.34;54.82
61488;BME280;47351;53.326;-6.298;2023-11-21T13:03:54;102804.96;;;16.11;55.40
61488;BME280;47351;53.326;-6.298;2023-11-21T13:06:44;102802.02;;;16.00;56.09
61488;BME280;47351;53.326;-6.298;2023-11-21T13:09:35;102796.09;;;15.78;56.12
61488;BME280;47351;53.326;-6.298;2023-11-21T13:12:26;102792.92;;;15.48;56.74
61488;BME280;47351;53.326;-6.298;2023-11-21T13:15:16;102789.80;;;15.12;57.17
61488;BME280;47351;53.326;-6.298;2023-11-21T13:18:07;102787.75;;;14.63;57.51
61488;BME280;47351;53.326;-6.298;2023-11-21T13:21:01;102790.83;;;14.09;58.21
61488;BME280;47351;53.326;-6.298;2023-11-21T13:23:53;102795.55;;;13.62;58.99
61488;BME280;47351;53.326;-6.298;2023-11-21T13:26:43;102796.54;;;13.23;60.01
61488;BME280;47351;53.326;-6.298;2023-11-21T13:29:34;102792.02;;;12.90;60.74
61488;BME280;47351;53.326;-6.298;2023-11-21T13:32:25;102797.27;;;12.63;61.91
61488;BME280;47351;53.326;-6.298;2023-11-21T13:35:16;102807.50;;;12.44;62.64
61488;BME280;47351;53.326;-6.298;2023-11-21T13:38:12;102819.09;;;12.29;63.06
61488;BME280;47351;53.326;-6.298;2023-11-21T13:41:03;102824.52;;;12.14;63.42
61488;BME280;47351;53.326;-6.298;2023-11-21T13:43:56;102821.34;;;12.03;63.88
61488;BME280;47351;53.326;-6.298;2023-11-21T13:46:54;102813.48;;;11.94;64.47
61488;BME280;47351;53.326;-6.298;2023-11-21T13:49:46;102809.83;;;11.82;64.98
61488;BME280;47351;53.326;-6.298;2023-11-21T13:52:37;102805.52;;;11.71;65.33
61488;BME280;47351;53.326;-6.298;2023-11-21T13:55:28;102805.98;;;11.62;65.64
61488;BME280;47351;53.326;-6.298;2023-11-21T13:58:18;102810.73;;;11.51;66.13
61488;BME280;47351;53.326;-6.298;2023-11-21T14:01:12;102824.32;;;11.41;66.54
61488;BME280;47351;53.326;-6.298;2023-11-21T14:04:21;102829.39;;;11.28;67.13
61488;BME280;47351;53.326;-6.298;2023-11-21T14:07:28;102828.08;;;11.17;67.54
61488;BME280;47351;53.326;-6.298;2023-11-21T14:10:25;102829.46;;;11.07;67.80
61488;BME280;47351;53.326;-6.298;2023-11-21T14:13:15;102828.54;;;11.05;68.34
61488;BME280;47351;53.326;-6.298;2023-11-21T14:16:06;102828.17;;;11.03;68.60
61488;BME280;47351;53.326;-6.298;2023-11-21T14:18:59;102826.87;;;11.03;68.77
61488;BME280;47351;53.326;-6.298;2023-11-21T14:21:58;102832.95;;;11.03;69.07
61488;BME280;47351;53.326;-6.298;2023-11-21T14:24:49;102836.30;;;11.04;69.40
61488;BME280;47351;53.326;-6.298;2023-11-21T14:27:41;102835.53;;;11.05;69.69
61488;BME280;47351;53.326;-6.298;2023-11-21T14:30:32;102836.15;;;11.03;69.70
61488;BME280;47351;53.326;-6.298;2023-11-21T14:33:25;102840.86;;;11.00;69.88
61488;BME280;47351;53.326;-6.298;2023-11-21T14:36:16;102839.06;;;10.95;70.07
61488;BME280;47351;53.326;-6.298;2023-11-21T14:39:06;102844.89;;;10.91;70.50
61488;BME280;47351;53.326;-6.298;2023-11-21T14:42:02;102849.95;;;10.85;70.57
61488;BME280;47351;53.326;-6.298;2023-11-21T14:44:53;102850.45;;;10.81;71.00
61488;BME280;47351;53.326;-6.298;2023-11-21T14:47:49;102843.25;;;10.74;71.07
61488;BME280;47351;53.326;-6.298;2023-11-21T14:50:49;102835.65;;;10.62;71.16
61488;BME280;47351;53.326;-6.298;2023-11-21T14:54:02;102827.48;;;10.54;71.67
61488;BME280;47351;53.326;-6.298;2023-11-21T14:56:55;102824.86;;;10.48;72.05
61488;BME280;47351;53.326;-6.298;2023-11-21T14:59:46;102819.08;;;10.44;72.37
61488;BME280;47351;53.326;-6.298;2023-11-21T15:02:40;102822.02;;;10.37;72.56